Atchison, KS

5:07 PM CDT on July 07, 2015 (GMT -0500)
Shannon Township | | Change Station
CLOSE
Current Station
Personal Weather Station
Location: Atchison, KS
Elevation: 942 ft
Nearby Weather Stations
Active Advisory: Flood Warning Active Notice: Public Information Statement

Elev 942 ft 39.56 °N, 95.16 °W | Updated 6 minutes ago

Mostly Cloudy
Mostly Cloudy
71.1 °F
Feels Like 75 °F
N
0.0
Wind Variable Wind from North
Gusts 0.0 mph

Today
High -- | Low -- °F
--% Chance of Precip.
Yesterday
High -- | Low -- °F
Precip. -- in
6:00 AM 8:50 PM
Waning Gibbous, 61% visible
Pressure 30.05 in
Visibility 10.0 miles
Clouds Scattered Clouds 4200 ft
Heat Index 75 °F
Dew Point 60 °F
Humidity 68%
Rainfall 0.10 in
Snow Depth Not available.
UV 5 out of 12
Pollen .60 out of 12
Air Quality Not available.
Flu Activity Not available.
METAR KSTJ 072153Z 04006KT 10SM SCT042 22/13 A3006 RMK AO2 SLP174 T02220133

More Conditions Fewer Conditions

Pressure 30.05 in
Visibility 10.0 miles
Clouds Scattered Clouds 4200 ft
Heat Index 75 °F
Dew Point 60 °F
Humidity 68%
Rainfall 0.10 in
Snow Depth Not available.
UV 5 out of 12
Pollen .60 out of 12
Air Quality Not available.
Flu Activity Not available.
METAR KSTJ 072153Z 04006KT 10SM SCT042 22/13 A3006 RMK AO2 SLP174 T02220133

More Conditions Fewer Conditions

10-Day Weather Forecast

×

Almanac

Astronomy

Jul. 07, 2015 Rise Set
Actual Time
Civil Twilight
Nautical Twilight
Astronomical Twilight
Moon
Length of Visible Light
Length of Day
Tomorrow will be .
, % of the Moon is Illuminated

Today's Extremes

State Highs State Lows

Community

WunderPhotos

Upload Photos

1,835,939 photos uploaded!

WunderBlogs® & News

Nearby

Air Quality

  Air Quality AQ Index Pollutant
Not available.

Snow Depth

Station Depth Elevation

Earthquake Activity

City Distance Mag. Time & Date
Minimum magnitude displayed is 2.5.

Coastal Water Temperatures

Place Temperature

Stations

Nearby Weather Stations

Station Location Temp. Windchill Dew Point Humidity Wind Precip. Elev Updated Type
                   
Flood Warning
Statement as of 9:31 AM CDT on July 07, 2015

The Flood Warning continues for
the stranger creek at Easton.
* Until Wednesday afternoon.
* At 8:30 am Tuesday the stage was 17.9 feet.
* Flood stage is 17.0 feet.
* Minor flooding is occurring and minor flooding is forecast.
* Forecast... the river will fall below flood stage by
this afternoon.
* At 17.0 feet... water enters low-lying fields south of Easton.

                       Latest
location fs stage day/time forecast

Stranger creek
Easton 17 17.9 Tue 08 am 17.8 this afternoon


lat... Lon 3947 9519 3948 9511 3920 9500 3918 9511